Metar z połowy godziny Komunikat METAR ze strony awiacja.imgw.pl Metar G30 EPMM METAR EPMM 180830Z 25005KT 220V280 4000 BR BKN030 BKN070 M03/M04 Q1027 RMK M028 089 7/5=